sensor_id;sensor_type;location;lat;lon;timestamp;P1;durP1;ratioP1;P2;durP2;ratioP2
54384;SDS011;40284;52.878;5.998;2022-07-29T00:00:07;3.00;;;1.50;;
54384;SDS011;40284;52.878;5.998;2022-07-29T00:02:33;3.55;;;1.30;;
54384;SDS011;40284;52.878;5.998;2022-07-29T00:05:00;2.72;;;1.50;;
54384;SDS011;40284;52.878;5.998;2022-07-29T00:07:26;2.95;;;1.40;;
54384;SDS011;40284;52.878;5.998;2022-07-29T00:09:52;3.67;;;1.40;;
54384;SDS011;40284;52.878;5.998;2022-07-29T00:12:19;2.50;;;1.42;;
54384;SDS011;40284;52.878;5.998;2022-07-29T00:14:45;3.88;;;1.45;;
54384;SDS011;40284;52.878;5.998;2022-07-29T00:17:11;2.67;;;1.40;;
54384;SDS011;40284;52.878;5.998;2022-07-29T00:19:37;5.90;;;1.45;;
54384;SDS011;40284;52.878;5.998;2022-07-29T00:22:04;3.00;;;1.33;;
54384;SDS011;40284;52.878;5.998;2022-07-29T00:24:30;3.55;;;1.83;;
54384;SDS011;40284;52.878;5.998;2022-07-29T00:26:56;5.97;;;1.50;;
54384;SDS011;40284;52.878;5.998;2022-07-29T00:29:22;4.10;;;1.60;;
54384;SDS011;40284;52.878;5.998;2022-07-29T00:31:48;2.95;;;1.35;;
54384;SDS011;40284;52.878;5.998;2022-07-29T00:34:14;6.00;;;1.48;;
54384;SDS011;40284;52.878;5.998;2022-07-29T00:36:58;5.00;;;1.50;;
54384;SDS011;40284;52.878;5.998;2022-07-29T00:39:24;2.92;;;1.70;;
54384;SDS011;40284;52.878;5.998;2022-07-29T00:41:50;2.15;;;1.58;;
54384;SDS011;40284;52.878;5.998;2022-07-29T00:44:17;4.53;;;1.65;;
54384;SDS011;40284;52.878;5.998;2022-07-29T00:46:43;7.82;;;1.90;;
54384;SDS011;40284;52.878;5.998;2022-07-29T00:49:09;3.00;;;1.40;;
54384;SDS011;40284;52.878;5.998;2022-07-29T00:51:35;6.40;;;1.40;;
54384;SDS011;40284;52.878;5.998;2022-07-29T00:54:02;2.83;;;1.50;;
54384;SDS011;40284;52.878;5.998;2022-07-29T00:56:32;5.38;;;1.60;;
54384;SDS011;40284;52.878;5.998;2022-07-29T00:58:58;3.75;;;1.40;;
54384;SDS011;40284;52.878;5.998;2022-07-29T01:01:25;10.55;;;1.98;;
54384;SDS011;40284;52.878;5.998;2022-07-29T01:03:51;4.20;;;1.58;;
54384;SDS011;40284;52.878;5.998;2022-07-29T01:06:17;4.05;;;1.45;;
54384;SDS011;40284;52.878;5.998;2022-07-29T01:08:47;6.68;;;1.90;;
54384;SDS011;40284;52.878;5.998;2022-07-29T01:11:13;2.33;;;1.63;;
54384;SDS011;40284;52.878;5.998;2022-07-29T01:13:40;3.78;;;1.60;;
54384;SDS011;40284;52.878;5.998;2022-07-29T01:16:09;7.97;;;2.65;;
54384;SDS011;40284;52.878;5.998;2022-07-29T01:18:39;3.78;;;1.55;;
54384;SDS011;40284;52.878;5.998;2022-07-29T01:29:02;3.35;;;1.60;;
54384;SDS011;40284;52.878;5.998;2022-07-29T01:31:42;5.07;;;1.98;;
54384;SDS011;40284;52.878;5.998;2022-07-29T01:34:11;5.57;;;2.15;;
54384;SDS011;40284;52.878;5.998;2022-07-29T01:36:43;3.83;;;1.70;;
54384;SDS011;40284;52.878;5.998;2022-07-29T01:39:19;3.97;;;1.70;;
54384;SDS011;40284;52.878;5.998;2022-07-29T01:41:51;2.97;;;1.70;;
54384;SDS011;40284;52.878;5.998;2022-07-29T01:44:44;5.38;;;1.88;;
54384;SDS011;40284;52.878;5.998;2022-07-29T01:47:12;3.13;;;1.98;;
54384;SDS011;40284;52.878;5.998;2022-07-29T01:49:41;4.63;;;1.50;;
54384;SDS011;40284;52.878;5.998;2022-07-29T01:52:10;4.40;;;1.92;;
54384;SDS011;40284;52.878;5.998;2022-07-29T01:54:40;6.20;;;1.90;;
54384;SDS011;40284;52.878;5.998;2022-07-29T01:57:08;4.45;;;2.45;;
54384;SDS011;40284;52.878;5.998;2022-07-29T01:59:35;2.58;;;1.75;;
54384;SDS011;40284;52.878;5.998;2022-07-29T02:02:03;5.10;;;1.85;;
54384;SDS011;40284;52.878;5.998;2022-07-29T02:04:30;2.60;;;1.67;;
54384;SDS011;40284;52.878;5.998;2022-07-29T02:06:58;3.20;;;1.77;;
54384;SDS011;40284;52.878;5.998;2022-07-29T02:09:26;6.57;;;2.38;;
54384;SDS011;40284;52.878;5.998;2022-07-29T02:11:53;6.63;;;2.08;;
54384;SDS011;40284;52.878;5.998;2022-07-29T02:14:21;6.20;;;2.25;;
54384;SDS011;40284;52.878;5.998;2022-07-29T02:16:49;6.72;;;2.17;;
54384;SDS011;40284;52.878;5.998;2022-07-29T02:19:16;4.40;;;1.95;;
54384;SDS011;40284;52.878;5.998;2022-07-29T02:21:43;5.63;;;2.08;;
54384;SDS011;40284;52.878;5.998;2022-07-29T02:24:09;5.55;;;2.25;;
54384;SDS011;40284;52.878;5.998;2022-07-29T02:26:37;6.30;;;2.10;;
54384;SDS011;40284;52.878;5.998;2022-07-29T02:29:04;5.07;;;1.60;;
54384;SDS011;40284;52.878;5.998;2022-07-29T02:31:32;3.55;;;1.90;;
54384;SDS011;40284;52.878;5.998;2022-07-29T02:33:59;7.85;;;2.00;;
54384;SDS011;40284;52.878;5.998;2022-07-29T02:36:26;3.03;;;1.80;;
54384;SDS011;40284;52.878;5.998;2022-07-29T02:38:54;4.50;;;1.83;;
54384;SDS011;40284;52.878;5.998;2022-07-29T02:41:44;6.07;;;2.13;;
54384;SDS011;40284;52.878;5.998;2022-07-29T02:44:09;4.40;;;1.95;;
54384;SDS011;40284;52.878;5.998;2022-07-29T02:46:36;7.60;;;2.08;;
54384;SDS011;40284;52.878;5.998;2022-07-29T02:49:29;4.25;;;1.58;;
54384;SDS011;40284;52.878;5.998;2022-07-29T02:52:01;3.00;;;2.00;;
54384;SDS011;40284;52.878;5.998;2022-07-29T03:00:05;4.07;;;1.70;;
54384;SDS011;40284;52.878;5.998;2022-07-29T03:02:33;4.72;;;1.83;;
54384;SDS011;40284;52.878;5.998;2022-07-29T03:05:00;5.43;;;1.73;;
54384;SDS011;40284;52.878;5.998;2022-07-29T03:07:27;4.50;;;1.75;;
54384;SDS011;40284;52.878;5.998;2022-07-29T03:09:53;5.95;;;3.17;;
54384;SDS011;40284;52.878;5.998;2022-07-29T03:12:20;7.10;;;1.55;;
54384;SDS011;40284;52.878;5.998;2022-07-29T03:14:46;5.57;;;2.10;;
54384;SDS011;40284;52.878;5.998;2022-07-29T03:17:13;5.30;;;1.88;;
54384;SDS011;40284;52.878;5.998;2022-07-29T03:19:40;6.93;;;1.98;;
54384;SDS011;40284;52.878;5.998;2022-07-29T03:22:06;5.35;;;2.00;;
54384;SDS011;40284;52.878;5.998;2022-07-29T03:24:33;6.43;;;1.90;;
54384;SDS011;40284;52.878;5.998;2022-07-29T03:27:00;7.07;;;1.88;;
54384;SDS011;40284;52.878;5.998;2022-07-29T03:29:26;8.07;;;2.10;;
54384;SDS011;40284;52.878;5.998;2022-07-29T03:31:53;3.22;;;1.73;;
54384;SDS011;40284;52.878;5.998;2022-07-29T03:34:19;5.57;;;1.90;;
54384;SDS011;40284;52.878;5.998;2022-07-29T03:36:46;4.70;;;1.65;;
54384;SDS011;40284;52.878;5.998;2022-07-29T03:39:13;3.35;;;1.77;;
54384;SDS011;40284;52.878;5.998;2022-07-29T03:41:41;4.63;;;1.92;;
54384;SDS011;40284;52.878;5.998;2022-07-29T03:44:08;4.55;;;2.10;;
54384;SDS011;40284;52.878;5.998;2022-07-29T03:46:35;4.10;;;1.95;;
54384;SDS011;40284;52.878;5.998;2022-07-29T03:49:02;4.15;;;2.05;;
54384;SDS011;40284;52.878;5.998;2022-07-29T03:51:28;7.55;;;2.00;;
54384;SDS011;40284;52.878;5.998;2022-07-29T03:53:54;3.85;;;1.50;;
54384;SDS011;40284;52.878;5.998;2022-07-29T03:56:21;2.90;;;1.83;;
54384;SDS011;40284;52.878;5.998;2022-07-29T03:58:48;6.95;;;2.25;;
54384;SDS011;40284;52.878;5.998;2022-07-29T04:01:15;5.43;;;2.03;;
54384;SDS011;40284;52.878;5.998;2022-07-29T04:03:43;4.20;;;1.80;;
54384;SDS011;40284;52.878;5.998;2022-07-29T04:06:10;4.03;;;1.90;;
54384;SDS011;40284;52.878;5.998;2022-07-29T04:08:36;4.28;;;1.65;;
54384;SDS011;40284;52.878;5.998;2022-07-29T04:11:03;4.20;;;1.55;;
54384;SDS011;40284;52.878;5.998;2022-07-29T04:13:30;3.53;;;1.83;;
54384;SDS011;40284;52.878;5.998;2022-07-29T04:15:56;4.18;;;1.92;;
54384;SDS011;40284;52.878;5.998;2022-07-29T04:18:23;8.43;;;1.92;;
54384;SDS011;40284;52.878;5.998;2022-07-29T04:20:49;5.22;;;1.80;;
54384;SDS011;40284;52.878;5.998;2022-07-29T04:23:15;4.90;;;1.70;;
54384;SDS011;40284;52.878;5.998;2022-07-29T04:25:41;9.60;;;2.30;;
54384;SDS011;40284;52.878;5.998;2022-07-29T04:28:08;4.38;;;2.10;;
54384;SDS011;40284;52.878;5.998;2022-07-29T04:30:34;4.50;;;1.50;;
54384;SDS011;40284;52.878;5.998;2022-07-29T04:33:02;4.93;;;1.70;;
54384;SDS011;40284;52.878;5.998;2022-07-29T04:35:28;4.72;;;1.90;;
54384;SDS011;40284;52.878;5.998;2022-07-29T04:37:55;4.65;;;2.17;;
54384;SDS011;40284;52.878;5.998;2022-07-29T04:40:21;8.40;;;2.75;;
54384;SDS011;40284;52.878;5.998;2022-07-29T04:42:47;4.45;;;2.00;;
54384;SDS011;40284;52.878;5.998;2022-07-29T04:45:13;8.27;;;1.95;;
54384;SDS011;40284;52.878;5.998;2022-07-29T04:47:39;5.45;;;1.92;;
54384;SDS011;40284;52.878;5.998;2022-07-29T04:50:06;6.40;;;1.77;;
54384;SDS011;40284;52.878;5.998;2022-07-29T04:52:32;5.30;;;1.90;;
54384;SDS011;40284;52.878;5.998;2022-07-29T04:55:00;6.07;;;1.73;;
54384;SDS011;40284;52.878;5.998;2022-07-29T04:57:26;4.72;;;1.75;;
54384;SDS011;40284;52.878;5.998;2022-07-29T04:59:52;3.85;;;1.60;;
54384;SDS011;40284;52.878;5.998;2022-07-29T05:02:18;9.88;;;2.00;;
54384;SDS011;40284;52.878;5.998;2022-07-29T05:04:44;5.55;;;2.33;;
54384;SDS011;40284;52.878;5.998;2022-07-29T05:07:10;4.80;;;1.92;;
54384;SDS011;40284;52.878;5.998;2022-07-29T05:09:36;4.95;;;2.42;;
54384;SDS011;40284;52.878;5.998;2022-07-29T05:12:02;7.95;;;2.15;;
54384;SDS011;40284;52.878;5.998;2022-07-29T05:14:28;3.85;;;1.80;;
54384;SDS011;40284;52.878;5.998;2022-07-29T05:16:55;5.10;;;2.53;;
54384;SDS011;40284;52.878;5.998;2022-07-29T05:19:22;4.32;;;1.58;;
54384;SDS011;40284;52.878;5.998;2022-07-29T05:21:48;4.30;;;1.90;;
54384;SDS011;40284;52.878;5.998;2022-07-29T05:24:14;4.13;;;2.00;;
54384;SDS011;40284;52.878;5.998;2022-07-29T05:26:41;3.78;;;1.85;;
54384;SDS011;40284;52.878;5.998;2022-07-29T05:29:07;6.43;;;1.75;;
54384;SDS011;40284;52.878;5.998;2022-07-29T05:31:33;7.15;;;1.83;;
54384;SDS011;40284;52.878;5.998;2022-07-29T05:33:59;4.22;;;1.85;;
54384;SDS011;40284;52.878;5.998;2022-07-29T05:36:26;4.15;;;1.70;;
54384;SDS011;40284;52.878;5.998;2022-07-29T05:38:52;5.35;;;1.90;;
54384;SDS011;40284;52.878;5.998;2022-07-29T05:41:18;4.18;;;2.10;;
54384;SDS011;40284;52.878;5.998;2022-07-29T05:43:44;3.05;;;2.10;;
54384;SDS011;40284;52.878;5.998;2022-07-29T05:46:10;3.22;;;2.22;;
54384;SDS011;40284;52.878;5.998;2022-07-29T05:48:37;8.95;;;2.45;;
54384;SDS011;40284;52.878;5.998;2022-07-29T05:51:03;4.68;;;1.77;;
54384;SDS011;40284;52.878;5.998;2022-07-29T05:53:30;2.60;;;1.67;;
54384;SDS011;40284;52.878;5.998;2022-07-29T05:55:56;3.75;;;1.75;;
54384;SDS011;40284;52.878;5.998;2022-07-29T05:58:22;5.18;;;1.88;;
54384;SDS011;40284;52.878;5.998;2022-07-29T06:00:48;3.15;;;1.80;;
54384;SDS011;40284;52.878;5.998;2022-07-29T06:03:14;4.32;;;2.00;;
54384;SDS011;40284;52.878;5.998;2022-07-29T06:05:40;4.60;;;1.95;;
54384;SDS011;40284;52.878;5.998;2022-07-29T06:08:06;3.33;;;1.83;;
54384;SDS011;40284;52.878;5.998;2022-07-29T06:10:34;4.15;;;1.73;;
54384;SDS011;40284;52.878;5.998;2022-07-29T06:13:00;6.28;;;1.77;;
54384;SDS011;40284;52.878;5.998;2022-07-29T06:15:26;5.47;;;2.13;;
54384;SDS011;40284;52.878;5.998;2022-07-29T06:17:52;3.53;;;1.73;;
54384;SDS011;40284;52.878;5.998;2022-07-29T06:20:18;3.63;;;2.22;;
54384;SDS011;40284;52.878;5.998;2022-07-29T06:22:44;7.63;;;2.60;;
54384;SDS011;40284;52.878;5.998;2022-07-29T06:25:11;3.85;;;2.30;;
54384;SDS011;40284;52.878;5.998;2022-07-29T06:27:37;4.53;;;2.00;;
54384;SDS011;40284;52.878;5.998;2022-07-29T06:30:03;6.47;;;2.20;;
54384;SDS011;40284;52.878;5.998;2022-07-29T06:32:31;5.72;;;2.05;;
54384;SDS011;40284;52.878;5.998;2022-07-29T06:34:57;7.55;;;1.83;;
54384;SDS011;40284;52.878;5.998;2022-07-29T06:37:23;4.78;;;1.90;;
54384;SDS011;40284;52.878;5.998;2022-07-29T06:39:50;3.80;;;1.60;;
54384;SDS011;40284;52.878;5.998;2022-07-29T06:42:36;5.57;;;2.67;;
54384;SDS011;40284;52.878;5.998;2022-07-29T06:45:02;2.28;;;1.83;;
54384;SDS011;40284;52.878;5.998;2022-07-29T06:47:28;5.57;;;2.05;;
54384;SDS011;40284;52.878;5.998;2022-07-29T06:49:54;5.00;;;2.03;;
54384;SDS011;40284;52.878;5.998;2022-07-29T06:52:20;7.00;;;2.08;;
54384;SDS011;40284;52.878;5.998;2022-07-29T06:54:46;5.88;;;2.25;;
54384;SDS011;40284;52.878;5.998;2022-07-29T06:57:13;5.30;;;1.58;;
54384;SDS011;40284;52.878;5.998;2022-07-29T06:59:39;5.45;;;2.45;;
54384;SDS011;40284;52.878;5.998;2022-07-29T07:02:05;4.65;;;2.28;;
54384;SDS011;40284;52.878;5.998;2022-07-29T07:04:31;4.28;;;2.05;;
54384;SDS011;40284;52.878;5.998;2022-07-29T07:06:58;6.57;;;2.40;;
54384;SDS011;40284;52.878;5.998;2022-07-29T07:09:24;6.22;;;2.88;;
54384;SDS011;40284;52.878;5.998;2022-07-29T07:11:50;4.68;;;1.60;;
54384;SDS011;40284;52.878;5.998;2022-07-29T07:14:16;4.75;;;1.95;;
54384;SDS011;40284;52.878;5.998;2022-07-29T07:16:42;7.85;;;2.30;;
54384;SDS011;40284;52.878;5.998;2022-07-29T07:19:09;7.53;;;2.10;;
54384;SDS011;40284;52.878;5.998;2022-07-29T07:21:35;5.03;;;1.90;;
54384;SDS011;40284;52.878;5.998;2022-07-29T07:24:01;7.63;;;2.28;;
54384;SDS011;40284;52.878;5.998;2022-07-29T07:26:27;10.00;;;2.17;;
54384;SDS011;40284;52.878;5.998;2022-07-29T07:28:53;10.50;;;2.13;;
54384;SDS011;40284;52.878;5.998;2022-07-29T07:31:19;6.95;;;1.98;;
54384;SDS011;40284;52.878;5.998;2022-07-29T07:33:45;7.35;;;1.92;;
54384;SDS011;40284;52.878;5.998;2022-07-29T07:36:12;8.05;;;2.10;;
54384;SDS011;40284;52.878;5.998;2022-07-29T07:38:38;7.68;;;2.10;;
54384;SDS011;40284;52.878;5.998;2022-07-29T07:41:04;8.32;;;2.33;;
54384;SDS011;40284;52.878;5.998;2022-07-29T07:43:30;5.22;;;2.30;;
54384;SDS011;40284;52.878;5.998;2022-07-29T07:45:57;8.45;;;2.63;;
54384;SDS011;40284;52.878;5.998;2022-07-29T07:48:23;6.47;;;2.10;;
54384;SDS011;40284;52.878;5.998;2022-07-29T07:50:49;4.78;;;2.20;;
54384;SDS011;40284;52.878;5.998;2022-07-29T07:53:15;6.65;;;1.90;;
54384;SDS011;40284;52.878;5.998;2022-07-29T07:55:42;8.85;;;2.92;;
54384;SDS011;40284;52.878;5.998;2022-07-29T07:58:08;7.65;;;2.20;;
54384;SDS011;40284;52.878;5.998;2022-07-29T08:00:35;4.72;;;2.33;;
54384;SDS011;40284;52.878;5.998;2022-07-29T08:03:01;7.18;;;2.35;;
54384;SDS011;40284;52.878;5.998;2022-07-29T08:05:27;6.72;;;2.78;;
54384;SDS011;40284;52.878;5.998;2022-07-29T08:07:54;6.60;;;2.40;;
54384;SDS011;40284;52.878;5.998;2022-07-29T08:10:20;5.55;;;2.50;;
54384;SDS011;40284;52.878;5.998;2022-07-29T08:13:06;4.68;;;2.17;;
54384;SDS011;40284;52.878;5.998;2022-07-29T08:15:32;8.38;;;2.55;;
54384;SDS011;40284;52.878;5.998;2022-07-29T08:17:58;6.75;;;2.47;;
54384;SDS011;40284;52.878;5.998;2022-07-29T08:20:25;6.32;;;2.28;;
54384;SDS011;40284;52.878;5.998;2022-07-29T08:22:52;5.95;;;2.30;;
54384;SDS011;40284;52.878;5.998;2022-07-29T08:25:21;4.72;;;2.40;;
54384;SDS011;40284;52.878;5.998;2022-07-29T08:27:47;7.63;;;2.28;;
54384;SDS011;40284;52.878;5.998;2022-07-29T08:30:14;6.13;;;2.28;;
54384;SDS011;40284;52.878;5.998;2022-07-29T08:32:40;5.40;;;2.40;;
54384;SDS011;40284;52.878;5.998;2022-07-29T08:35:06;4.20;;;2.38;;
54384;SDS011;40284;52.878;5.998;2022-07-29T08:37:32;6.97;;;2.55;;
54384;SDS011;40284;52.878;5.998;2022-07-29T08:39:58;10.02;;;2.92;;
54384;SDS011;40284;52.878;5.998;2022-07-29T08:42:24;6.03;;;2.30;;
54384;SDS011;40284;52.878;5.998;2022-07-29T08:44:50;6.20;;;2.67;;
54384;SDS011;40284;52.878;5.998;2022-07-29T08:47:16;5.53;;;2.10;;
54384;SDS011;40284;52.878;5.998;2022-07-29T08:49:42;4.35;;;2.05;;
54384;SDS011;40284;52.878;5.998;2022-07-29T08:52:10;6.78;;;2.60;;
54384;SDS011;40284;52.878;5.998;2022-07-29T08:54:37;3.75;;;2.17;;
54384;SDS011;40284;52.878;5.998;2022-07-29T08:57:04;14.88;;;3.00;;
54384;SDS011;40284;52.878;5.998;2022-07-29T08:59:30;6.50;;;2.30;;
54384;SDS011;40284;52.878;5.998;2022-07-29T09:01:59;4.22;;;2.40;;
54384;SDS011;40284;52.878;5.998;2022-07-29T09:04:32;4.93;;;2.03;;
54384;SDS011;40284;52.878;5.998;2022-07-29T09:07:00;3.85;;;2.30;;
54384;SDS011;40284;52.878;5.998;2022-07-29T09:09:29;8.00;;;2.65;;
54384;SDS011;40284;52.878;5.998;2022-07-29T09:11:55;6.97;;;2.67;;
54384;SDS011;40284;52.878;5.998;2022-07-29T09:14:27;5.32;;;2.33;;
54384;SDS011;40284;52.878;5.998;2022-07-29T09:16:54;7.97;;;2.85;;
54384;SDS011;40284;52.878;5.998;2022-07-29T09:21:50;5.90;;;2.72;;
54384;SDS011;40284;52.878;5.998;2022-07-29T09:24:22;4.22;;;2.33;;
54384;SDS011;40284;52.878;5.998;2022-07-29T09:26:48;4.50;;;2.28;;
54384;SDS011;40284;52.878;5.998;2022-07-29T09:29:18;7.30;;;2.58;;
54384;SDS011;40284;52.878;5.998;2022-07-29T09:31:46;5.50;;;2.60;;
54384;SDS011;40284;52.878;5.998;2022-07-29T09:34:14;4.65;;;2.42;;
54384;SDS011;40284;52.878;5.998;2022-07-29T09:36:41;5.28;;;2.28;;
54384;SDS011;40284;52.878;5.998;2022-07-29T09:39:08;5.50;;;2.20;;
54384;SDS011;40284;52.878;5.998;2022-07-29T09:41:50;9.32;;;2.78;;
54384;SDS011;40284;52.878;5.998;2022-07-29T09:44:19;8.73;;;3.28;;
54384;SDS011;40284;52.878;5.998;2022-07-29T09:46:59;4.97;;;2.40;;
54384;SDS011;40284;52.878;5.998;2022-07-29T09:49:31;4.68;;;2.58;;
54384;SDS011;40284;52.878;5.998;2022-07-29T09:52:08;6.50;;;2.90;;
54384;SDS011;40284;52.878;5.998;2022-07-29T09:57:04;4.95;;;2.33;;
54384;SDS011;40284;52.878;5.998;2022-07-29T09:59:31;5.32;;;2.42;;
54384;SDS011;40284;52.878;5.998;2022-07-29T10:01:57;5.47;;;2.70;;
54384;SDS011;40284;52.878;5.998;2022-07-29T10:04:23;8.20;;;2.45;;
54384;SDS011;40284;52.878;5.998;2022-07-29T10:06:56;9.38;;;2.75;;
54384;SDS011;40284;52.878;5.998;2022-07-29T10:09:25;5.63;;;3.00;;
54384;SDS011;40284;52.878;5.998;2022-07-29T10:12:10;7.30;;;3.22;;
54384;SDS011;40284;52.878;5.998;2022-07-29T10:14:39;6.30;;;2.90;;
54384;SDS011;40284;52.878;5.998;2022-07-29T10:17:06;5.95;;;2.95;;
54384;SDS011;40284;52.878;5.998;2022-07-29T10:19:32;8.35;;;3.17;;
54384;SDS011;40284;52.878;5.998;2022-07-29T10:21:59;7.13;;;2.50;;
54384;SDS011;40284;52.878;5.998;2022-07-29T10:24:26;6.43;;;2.85;;
54384;SDS011;40284;52.878;5.998;2022-07-29T10:26:56;5.30;;;2.15;;
54384;SDS011;40284;52.878;5.998;2022-07-29T10:29:23;8.45;;;2.58;;
54384;SDS011;40284;52.878;5.998;2022-07-29T10:31:59;6.45;;;3.28;;
54384;SDS011;40284;52.878;5.998;2022-07-29T10:37:18;7.32;;;2.40;;
54384;SDS011;40284;52.878;5.998;2022-07-29T10:42:20;5.35;;;2.17;;
54384;SDS011;40284;52.878;5.998;2022-07-29T10:44:49;7.38;;;2.75;;
54384;SDS011;40284;52.878;5.998;2022-07-29T10:52:23;4.75;;;2.88;;
54384;SDS011;40284;52.878;5.998;2022-07-29T10:54:52;8.65;;;2.97;;
54384;SDS011;40284;52.878;5.998;2022-07-29T10:57:26;6.68;;;2.50;;
54384;SDS011;40284;52.878;5.998;2022-07-29T11:07:23;7.40;;;3.10;;
54384;SDS011;40284;52.878;5.998;2022-07-29T11:15:07;6.78;;;2.83;;
54384;SDS011;40284;52.878;5.998;2022-07-29T11:20:32;6.47;;;3.25;;
54384;SDS011;40284;52.878;5.998;2022-07-29T11:25:24;6.70;;;2.88;;
54384;SDS011;40284;52.878;5.998;2022-07-29T11:27:51;5.00;;;2.40;;
54384;SDS011;40284;52.878;5.998;2022-07-29T11:30:18;5.90;;;2.92;;
54384;SDS011;40284;52.878;5.998;2022-07-29T11:32:44;6.22;;;3.30;;
54384;SDS011;40284;52.878;5.998;2022-07-29T11:35:13;7.28;;;3.10;;
54384;SDS011;40284;52.878;5.998;2022-07-29T11:37:40;5.72;;;2.90;;
54384;SDS011;40284;52.878;5.998;2022-07-29T11:45:15;9.60;;;3.53;;
54384;SDS011;40284;52.878;5.998;2022-07-29T11:50:09;7.38;;;4.25;;
54384;SDS011;40284;52.878;5.998;2022-07-29T11:52:42;5.20;;;2.90;;
54384;SDS011;40284;52.878;5.998;2022-07-29T11:55:12;8.65;;;2.67;;
54384;SDS011;40284;52.878;5.998;2022-07-29T11:57:52;6.57;;;3.65;;
54384;SDS011;40284;52.878;5.998;2022-07-29T12:02:53;6.40;;;3.45;;
54384;SDS011;40284;52.878;5.998;2022-07-29T12:05:20;5.00;;;2.97;;
54384;SDS011;40284;52.878;5.998;2022-07-29T12:07:46;7.05;;;3.45;;
54384;SDS011;40284;52.878;5.998;2022-07-29T12:10:13;7.10;;;3.10;;
54384;SDS011;40284;52.878;5.998;2022-07-29T12:12:39;7.05;;;2.97;;
54384;SDS011;40284;52.878;5.998;2022-07-29T12:15:15;8.65;;;3.55;;
54384;SDS011;40284;52.878;5.998;2022-07-29T12:17:42;5.70;;;2.90;;
54384;SDS011;40284;52.878;5.998;2022-07-29T12:20:09;6.65;;;2.92;;
54384;SDS011;40284;52.878;5.998;2022-07-29T12:22:36;7.15;;;2.92;;
54384;SDS011;40284;52.878;5.998;2022-07-29T12:25:04;5.95;;;2.70;;
54384;SDS011;40284;52.878;5.998;2022-07-29T12:27:34;5.38;;;2.72;;
54384;SDS011;40284;52.878;5.998;2022-07-29T12:30:10;8.07;;;2.80;;
54384;SDS011;40284;52.878;5.998;2022-07-29T12:32:39;8.70;;;2.78;;
54384;SDS011;40284;52.878;5.998;2022-07-29T12:35:06;10.05;;;2.78;;
54384;SDS011;40284;52.878;5.998;2022-07-29T12:37:36;9.75;;;2.80;;
54384;SDS011;40284;52.878;5.998;2022-07-29T12:40:02;6.03;;;2.33;;
54384;SDS011;40284;52.878;5.998;2022-07-29T12:42:29;4.05;;;2.75;;
54384;SDS011;40284;52.878;5.998;2022-07-29T12:44:55;8.43;;;2.70;;
54384;SDS011;40284;52.878;5.998;2022-07-29T12:47:22;7.95;;;2.22;;
54384;SDS011;40284;52.878;5.998;2022-07-29T12:49:48;5.72;;;3.03;;
54384;SDS011;40284;52.878;5.998;2022-07-29T12:52:31;8.82;;;2.58;;
54384;SDS011;40284;52.878;5.998;2022-07-29T12:54:57;5.78;;;1.85;;
54384;SDS011;40284;52.878;5.998;2022-07-29T12:57:24;11.18;;;2.78;;
54384;SDS011;40284;52.878;5.998;2022-07-29T13:02:25;9.63;;;2.38;;
54384;SDS011;40284;52.878;5.998;2022-07-29T13:04:57;7.07;;;1.88;;
54384;SDS011;40284;52.878;5.998;2022-07-29T13:07:28;8.13;;;1.83;;
54384;SDS011;40284;52.878;5.998;2022-07-29T13:10:12;7.18;;;2.10;;
54384;SDS011;40284;52.878;5.998;2022-07-29T13:12:38;7.57;;;2.22;;
54384;SDS011;40284;52.878;5.998;2022-07-29T13:15:14;4.25;;;1.80;;
54384;SDS011;40284;52.878;5.998;2022-07-29T13:17:41;6.85;;;1.75;;
54384;SDS011;40284;52.878;5.998;2022-07-29T13:20:09;3.80;;;1.92;;
54384;SDS011;40284;52.878;5.998;2022-07-29T13:22:37;5.57;;;1.77;;
54384;SDS011;40284;52.878;5.998;2022-07-29T13:25:03;6.53;;;1.90;;
54384;SDS011;40284;52.878;5.998;2022-07-29T13:27:32;5.10;;;1.70;;
54384;SDS011;40284;52.878;5.998;2022-07-29T13:30:00;7.72;;;2.20;;
54384;SDS011;40284;52.878;5.998;2022-07-29T13:32:27;5.50;;;2.40;;
54384;SDS011;40284;52.878;5.998;2022-07-29T13:34:53;7.53;;;1.80;;
54384;SDS011;40284;52.878;5.998;2022-07-29T13:37:19;6.20;;;2.53;;
54384;SDS011;40284;52.878;5.998;2022-07-29T13:39:45;5.63;;;2.60;;
54384;SDS011;40284;52.878;5.998;2022-07-29T13:42:12;5.63;;;2.20;;
54384;SDS011;40284;52.878;5.998;2022-07-29T13:44:39;4.35;;;1.45;;
54384;SDS011;40284;52.878;5.998;2022-07-29T13:47:06;6.93;;;2.40;;
54384;SDS011;40284;52.878;5.998;2022-07-29T13:49:32;4.50;;;1.55;;
54384;SDS011;40284;52.878;5.998;2022-07-29T13:51:58;5.22;;;2.20;;
54384;SDS011;40284;52.878;5.998;2022-07-29T13:54:24;7.68;;;2.38;;
54384;SDS011;40284;52.878;5.998;2022-07-29T13:56:51;12.23;;;2.45;;
54384;SDS011;40284;52.878;5.998;2022-07-29T13:59:17;7.35;;;1.95;;
54384;SDS011;40284;52.878;5.998;2022-07-29T14:01:43;4.93;;;2.10;;
54384;SDS011;40284;52.878;5.998;2022-07-29T14:04:10;9.10;;;2.17;;
54384;SDS011;40284;52.878;5.998;2022-07-29T14:06:36;4.93;;;2.03;;
54384;SDS011;40284;52.878;5.998;2022-07-29T14:09:02;6.78;;;2.30;;
54384;SDS011;40284;52.878;5.998;2022-07-29T14:11:33;5.97;;;2.38;;
54384;SDS011;40284;52.878;5.998;2022-07-29T14:14:00;7.00;;;2.17;;
54384;SDS011;40284;52.878;5.998;2022-07-29T14:16:26;4.68;;;2.15;;
54384;SDS011;40284;52.878;5.998;2022-07-29T14:18:52;8.45;;;2.30;;
54384;SDS011;40284;52.878;5.998;2022-07-29T14:21:18;4.60;;;1.80;;
54384;SDS011;40284;52.878;5.998;2022-07-29T14:23:44;7.35;;;2.42;;
54384;SDS011;40284;52.878;5.998;2022-07-29T14:26:10;6.90;;;2.50;;
54384;SDS011;40284;52.878;5.998;2022-07-29T14:28:36;5.47;;;1.98;;
54384;SDS011;40284;52.878;5.998;2022-07-29T14:31:02;3.92;;;1.80;;
54384;SDS011;40284;52.878;5.998;2022-07-29T14:33:28;5.80;;;1.95;;
54384;SDS011;40284;52.878;5.998;2022-07-29T14:35:54;6.18;;;1.83;;
54384;SDS011;40284;52.878;5.998;2022-07-29T14:38:20;4.57;;;2.22;;
54384;SDS011;40284;52.878;5.998;2022-07-29T14:40:46;5.68;;;2.17;;
54384;SDS011;40284;52.878;5.998;2022-07-29T14:43:13;4.25;;;2.15;;
54384;SDS011;40284;52.878;5.998;2022-07-29T14:45:39;4.43;;;2.30;;
54384;SDS011;40284;52.878;5.998;2022-07-29T14:48:05;5.82;;;2.15;;
54384;SDS011;40284;52.878;5.998;2022-07-29T14:50:32;5.38;;;2.33;;
54384;SDS011;40284;52.878;5.998;2022-07-29T14:53:03;6.13;;;2.33;;
54384;SDS011;40284;52.878;5.998;2022-07-29T14:55:29;4.03;;;2.17;;
54384;SDS011;40284;52.878;5.998;2022-07-29T14:57:55;5.95;;;2.00;;
54384;SDS011;40284;52.878;5.998;2022-07-29T15:00:21;11.48;;;2.47;;
54384;SDS011;40284;52.878;5.998;2022-07-29T15:02:48;5.50;;;2.10;;
54384;SDS011;40284;52.878;5.998;2022-07-29T15:05:13;6.90;;;2.55;;
54384;SDS011;40284;52.878;5.998;2022-07-29T15:07:39;8.95;;;2.50;;
54384;SDS011;40284;52.878;5.998;2022-07-29T15:10:05;5.72;;;2.30;;
54384;SDS011;40284;52.878;5.998;2022-07-29T15:12:32;6.85;;;2.70;;
54384;SDS011;40284;52.878;5.998;2022-07-29T15:14:58;9.75;;;2.92;;
54384;SDS011;40284;52.878;5.998;2022-07-29T15:17:24;5.10;;;2.72;;
54384;SDS011;40284;52.878;5.998;2022-07-29T15:19:50;7.82;;;2.50;;
54384;SDS011;40284;52.878;5.998;2022-07-29T15:22:16;6.50;;;2.47;;
54384;SDS011;40284;52.878;5.998;2022-07-29T15:24:43;6.30;;;2.63;;
54384;SDS011;40284;52.878;5.998;2022-07-29T15:27:09;5.75;;;2.38;;
54384;SDS011;40284;52.878;5.998;2022-07-29T15:29:41;5.55;;;2.00;;
54384;SDS011;40284;52.878;5.998;2022-07-29T15:32:08;3.90;;;1.80;;
54384;SDS011;40284;52.878;5.998;2022-07-29T15:34:34;5.65;;;2.22;;
54384;SDS011;40284;52.878;5.998;2022-07-29T15:37:00;7.22;;;2.15;;
54384;SDS011;40284;52.878;5.998;2022-07-29T15:39:26;5.28;;;2.40;;
54384;SDS011;40284;52.878;5.998;2022-07-29T15:41:52;3.53;;;1.77;;
54384;SDS011;40284;52.878;5.998;2022-07-29T15:44:19;5.50;;;2.03;;
54384;SDS011;40284;52.878;5.998;2022-07-29T15:46:45;6.70;;;2.22;;
54384;SDS011;40284;52.878;5.998;2022-07-29T15:49:38;6.30;;;2.05;;